createdAt,value
2018-09-18T00:00:25.293Z,24.70
2018-09-18T00:02:55.402Z,25.80
2018-09-18T00:05:24.595Z,25.60
2018-09-18T00:07:53.870Z,24.53
2018-09-18T00:10:23.129Z,25.60
2018-09-18T00:12:52.369Z,26.27
2018-09-18T00:15:21.582Z,25.07
2018-09-18T00:17:50.736Z,24.27
2018-09-18T00:20:19.936Z,23.77
2018-09-18T00:22:49.181Z,25.67
2018-09-18T00:25:18.440Z,26.80
2018-09-18T00:27:47.566Z,26.33
2018-09-18T00:30:16.720Z,25.23
2018-09-18T00:32:45.917Z,24.17
2018-09-18T00:35:15.179Z,25.47
2018-09-18T00:37:44.438Z,27.97
2018-09-18T00:40:13.641Z,25.07
2018-09-18T00:42:42.874Z,26.43
2018-09-18T00:45:12.155Z,25.93
2018-09-18T00:47:41.677Z,26.73
2018-09-18T00:50:10.869Z,28.00
2018-09-18T00:52:40.143Z,26.10
2018-09-18T00:55:10.197Z,26.00
2018-09-18T00:57:39.420Z,25.40
2018-09-18T01:00:08.809Z,26.50
2018-09-18T01:02:37.997Z,24.87
2018-09-18T01:05:07.400Z,25.50
2018-09-18T01:07:36.696Z,24.70
2018-09-18T01:10:06.217Z,26.20
2018-09-18T01:12:35.431Z,27.30
2018-09-18T01:15:04.988Z,25.17
2018-09-18T01:17:34.184Z,25.97
2018-09-18T01:20:03.454Z,27.33
2018-09-18T01:22:32.620Z,23.87
2018-09-18T01:25:02.326Z,25.80
2018-09-18T01:27:31.531Z,24.63
2018-09-18T01:30:00.730Z,26.57
2018-09-18T01:32:29.925Z,25.77
2018-09-18T01:34:59.613Z,25.60
2018-09-18T01:37:29.161Z,25.30
2018-09-18T01:39:58.434Z,26.60
2018-09-18T01:42:27.629Z,27.90
2018-09-18T01:44:57.092Z,27.20
2018-09-18T01:47:27.060Z,26.83
2018-09-18T01:49:56.171Z,24.57
2018-09-18T01:52:25.614Z,25.70
2018-09-18T01:54:54.860Z,28.23
2018-09-18T01:57:24.388Z,27.73
2018-09-18T01:59:53.655Z,25.67
2018-09-18T02:02:23.277Z,27.90
2018-09-18T02:04:52.465Z,25.47
2018-09-18T02:07:21.678Z,28.00
2018-09-18T02:09:50.857Z,28.00
2018-09-18T02:12:19.994Z,27.50
2018-09-18T02:14:49.183Z,28.57
2018-09-18T02:17:18.388Z,28.90
2018-09-18T02:19:48.138Z,28.20
2018-09-18T02:22:17.331Z,28.13
2018-09-18T02:24:46.537Z,27.20
2018-09-18T02:27:15.787Z,26.60
2018-09-18T02:29:44.986Z,28.47
2018-09-18T02:32:14.154Z,30.00
2018-09-18T02:34:43.649Z,29.20
2018-09-18T02:37:12.868Z,29.00
2018-09-18T02:39:42.108Z,28.60
2018-09-18T02:42:11.229Z,30.87
2018-09-18T02:44:40.446Z,30.20
2018-09-18T02:47:09.692Z,33.50
2018-09-18T02:49:38.883Z,34.33
2018-09-18T02:52:08.390Z,35.57
2018-09-18T02:54:37.594Z,34.40
2018-09-18T02:57:06.487Z,34.07
2018-09-18T02:59:35.639Z,33.30
2018-09-18T03:02:05.288Z,34.40
2018-09-18T03:04:34.513Z,33.40
2018-09-18T03:07:03.757Z,32.83
2018-09-18T03:09:32.928Z,32.80
2018-09-18T03:12:02.196Z,33.47
2018-09-18T03:14:31.511Z,34.07
2018-09-18T03:17:00.724Z,34.40
2018-09-18T03:19:29.891Z,32.33
2018-09-18T03:21:59.061Z,31.13
2018-09-18T03:24:28.223Z,32.10
2018-09-18T03:26:57.371Z,30.80
2018-09-18T03:29:26.602Z,31.43
2018-09-18T03:31:55.878Z,30.50
2018-09-18T03:34:25.033Z,31.00
2018-09-18T03:36:54.220Z,31.60
2018-09-18T03:39:23.401Z,31.53
2018-09-18T03:41:52.528Z,32.90
2018-09-18T03:44:21.723Z,32.53
2018-09-18T03:46:50.892Z,60.10
2018-09-18T03:49:20.023Z,50.93
2018-09-18T03:51:49.263Z,47.50
2018-09-18T03:54:18.485Z,60.53
2018-09-18T03:56:47.723Z,67.67
2018-09-18T03:59:17.198Z,64.53
2018-09-18T04:01:46.367Z,69.83
2018-09-18T04:04:15.577Z,67.47
2018-09-18T04:06:45.478Z,63.60
2018-09-18T04:09:16.196Z,66.33
2018-09-18T04:11:45.362Z,63.73
2018-09-18T04:14:14.509Z,57.47
2018-09-18T04:16:43.703Z,58.70
2018-09-18T04:19:12.916Z,56.93
2018-09-18T04:21:43.306Z,56.20
2018-09-18T04:24:12.432Z,51.77
2018-09-18T04:26:42.021Z,51.00
2018-09-18T04:29:11.254Z,51.57
2018-09-18T04:31:41.430Z,51.07
2018-09-18T04:34:10.593Z,46.60
2018-09-18T04:36:39.757Z,46.07
2018-09-18T04:39:10.990Z,45.27
2018-09-18T04:41:40.191Z,42.30
2018-09-18T04:44:10.088Z,45.60
2018-09-18T04:46:39.264Z,46.23
2018-09-18T04:49:09.457Z,45.70
2018-09-18T04:51:38.575Z,45.27
2018-09-18T04:54:07.771Z,43.20
2018-09-18T04:56:39.269Z,41.97
2018-09-18T04:59:08.421Z,43.40
2018-09-18T05:01:38.812Z,46.00
2018-09-18T05:04:07.980Z,43.20
2018-09-18T05:06:37.151Z,41.83
2018-09-18T05:09:08.802Z,41.97
2018-09-18T05:11:38.076Z,40.70
2018-09-18T05:14:07.275Z,40.43
2018-09-18T05:16:36.445Z,41.57
2018-09-18T05:19:05.680Z,43.97
2018-09-18T05:21:34.906Z,44.63
2018-09-18T05:24:04.136Z,43.80
2018-09-18T05:26:33.648Z,44.77
2018-09-18T05:29:02.810Z,43.73
2018-09-18T05:31:31.953Z,43.43
2018-09-18T05:34:01.151Z,41.20
2018-09-18T05:36:30.565Z,40.80
2018-09-18T05:38:59.708Z,42.20
2018-09-18T05:41:28.974Z,44.60
2018-09-18T05:43:58.122Z,41.03
2018-09-18T05:46:27.261Z,40.57
2018-09-18T05:48:56.434Z,39.53
2018-09-18T05:51:25.548Z,42.20
2018-09-18T05:53:54.810Z,39.40
2018-09-18T05:56:23.965Z,40.90
2018-09-18T05:58:53.137Z,39.90
2018-09-18T06:01:22.361Z,41.13
2018-09-18T06:03:51.546Z,39.00
2018-09-18T06:06:20.706Z,35.57
2018-09-18T06:08:49.948Z,35.30
2018-09-18T06:11:19.122Z,35.47
2018-09-18T06:13:48.312Z,34.70
2018-09-18T06:16:17.497Z,35.93
2018-09-18T06:18:47.069Z,33.93
2018-09-18T06:21:16.176Z,33.70
2018-09-18T06:23:45.396Z,33.20
2018-09-18T06:26:14.624Z,35.47
2018-09-18T06:28:43.769Z,33.47
2018-09-18T06:31:12.993Z,33.40
2018-09-18T06:33:42.197Z,33.17
2018-09-18T06:36:11.452Z,33.67
2018-09-18T06:38:40.697Z,35.97
2018-09-18T06:41:09.817Z,31.43
2018-09-18T06:43:39.013Z,30.53
2018-09-18T06:46:08.488Z,31.30
2018-09-18T06:48:37.950Z,28.30
2018-09-18T06:51:07.312Z,27.80
2018-09-18T06:53:36.560Z,29.27
2018-09-18T06:56:05.824Z,27.57
2018-09-18T06:58:35.671Z,28.07
2018-09-18T07:01:04.976Z,27.00
2018-09-18T07:03:34.222Z,27.93
2018-09-18T07:06:03.569Z,27.43
2018-09-18T07:08:32.881Z,26.13
2018-09-18T07:11:02.303Z,26.37
2018-09-18T07:13:32.560Z,27.23
2018-09-18T07:16:01.765Z,25.10
2018-09-18T07:18:31.029Z,25.50
2018-09-18T07:21:00.641Z,24.97
2018-09-18T07:23:29.894Z,24.47
2018-09-18T07:25:59.179Z,22.63
2018-09-18T07:28:28.416Z,23.27
2018-09-18T07:30:57.845Z,22.80
2018-09-18T07:33:27.111Z,21.40
2018-09-18T07:35:56.423Z,21.17
2018-09-18T07:38:25.702Z,24.37
2018-09-18T07:40:55.052Z,22.17
2018-09-18T07:43:24.255Z,22.90
2018-09-18T07:45:53.479Z,20.87
2018-09-18T07:48:22.729Z,21.13
2018-09-18T07:50:52.233Z,22.10
2018-09-18T07:53:21.425Z,19.53
2018-09-18T07:55:51.224Z,20.17
2018-09-18T07:58:20.398Z,21.53
2018-09-18T08:00:50.069Z,21.50
2018-09-18T08:03:19.362Z,19.70
2018-09-18T08:05:49.060Z,21.00
2018-09-18T08:08:18.435Z,21.87
2018-09-18T08:10:47.820Z,22.13
2018-09-18T08:13:17.111Z,20.50
2018-09-18T08:15:46.362Z,20.53
2018-09-18T08:18:15.640Z,19.63
2018-09-18T08:20:44.895Z,18.70
2018-09-18T08:23:14.141Z,20.60
2018-09-18T08:25:43.423Z,19.70
2018-09-18T08:28:12.982Z,17.33
2018-09-18T08:30:42.281Z,19.00
2018-09-18T08:33:11.771Z,20.00
2018-09-18T08:35:40.945Z,19.07
2018-09-18T08:38:10.128Z,18.70
2018-09-18T08:40:39.333Z,18.33
2018-09-18T08:43:08.720Z,18.47
2018-09-18T08:45:37.858Z,17.03
2018-09-18T08:48:07.001Z,18.00
2018-09-18T08:50:36.340Z,19.30
2018-09-18T08:53:05.575Z,17.37
2018-09-18T08:55:34.887Z,16.97
2018-09-18T08:58:04.710Z,16.80
2018-09-18T09:00:33.870Z,14.67
2018-09-18T09:03:03.201Z,16.33
2018-09-18T09:05:32.409Z,16.93
2018-09-18T09:08:01.687Z,15.40
2018-09-18T09:10:30.884Z,14.73
2018-09-18T09:13:00.011Z,16.10
2018-09-18T09:15:29.210Z,15.77
2018-09-18T09:17:58.467Z,14.00
2018-09-18T09:20:27.624Z,14.30
2018-09-18T09:22:56.914Z,14.77
2018-09-18T09:25:26.081Z,13.30
2018-09-18T09:27:55.273Z,13.03
2018-09-18T09:30:24.423Z,15.03
2018-09-18T09:32:53.711Z,13.83
2018-09-18T09:35:22.878Z,12.97
2018-09-18T09:37:52.066Z,13.53
2018-09-18T09:40:21.285Z,12.97
2018-09-18T09:42:50.505Z,12.10
2018-09-18T09:45:19.780Z,12.30
2018-09-18T09:47:48.930Z,12.97
2018-09-18T09:50:18.120Z,13.13
2018-09-18T09:52:47.262Z,13.07
2018-09-18T09:55:16.477Z,13.63
2018-09-18T09:57:45.659Z,12.43
2018-09-18T10:00:20.009Z,12.33
2018-09-18T10:02:49.435Z,12.50
2018-09-18T10:05:19.361Z,12.30
2018-09-18T10:07:49.074Z,11.97
2018-09-18T10:10:20.544Z,12.17
2018-09-18T10:12:49.677Z,11.87
2018-09-18T10:15:19.125Z,11.77
2018-09-18T10:17:48.338Z,11.67
2018-09-18T10:20:17.509Z,12.60
2018-09-18T10:22:46.778Z,11.43
2018-09-18T10:25:15.946Z,13.77
2018-09-18T10:27:45.129Z,11.70
2018-09-18T10:30:14.292Z,11.13
2018-09-18T10:32:43.517Z,10.50
2018-09-18T10:35:12.695Z,11.47
2018-09-18T10:37:41.826Z,10.63
2018-09-18T10:40:11.173Z,11.43
2018-09-18T10:42:40.394Z,11.63
2018-09-18T10:45:10.041Z,10.30
2018-09-18T10:47:39.228Z,10.70
2018-09-18T10:50:08.400Z,10.47
2018-09-18T10:52:37.834Z,9.93
2018-09-18T10:55:07.210Z,10.70
2018-09-18T10:57:36.343Z,9.90
2018-09-18T11:00:06.596Z,9.90
2018-09-18T11:02:35.748Z,11.30
2018-09-18T11:05:05.055Z,10.10
2018-09-18T11:07:34.333Z,10.93
2018-09-18T11:10:03.587Z,10.53
2018-09-18T11:12:32.679Z,9.80
2018-09-18T11:15:02.467Z,9.97
2018-09-18T11:17:31.569Z,8.80
2018-09-18T11:20:00.879Z,10.57
2018-09-18T11:22:29.975Z,9.83
2018-09-18T11:24:59.175Z,9.67
2018-09-18T11:27:28.434Z,10.63
2018-09-18T11:29:58.346Z,9.43
2018-09-18T11:32:27.515Z,9.43
2018-09-18T11:34:56.771Z,9.40
2018-09-18T11:37:25.957Z,9.50
2018-09-18T11:39:55.161Z,9.40
2018-09-18T11:42:24.338Z,8.40
2018-09-18T11:44:53.502Z,8.87
2018-09-18T11:47:22.678Z,10.53
2018-09-18T11:49:51.881Z,9.00
2018-09-18T11:52:21.026Z,8.70
2018-09-18T11:54:50.439Z,8.97
2018-09-18T11:57:19.592Z,9.60
2018-09-18T11:59:48.813Z,9.20
2018-09-18T12:02:18.017Z,9.30
2018-09-18T12:04:47.266Z,8.70
2018-09-18T12:07:16.416Z,8.60
2018-09-18T12:09:45.690Z,9.40
2018-09-18T12:12:14.948Z,8.40
2018-09-18T12:14:44.183Z,10.17
2018-09-18T12:17:13.363Z,7.97
2018-09-18T12:19:42.537Z,9.00
2018-09-18T12:22:11.718Z,8.50
2018-09-18T12:24:40.816Z,9.53
2018-09-18T12:27:10.317Z,7.93
2018-09-18T12:29:39.534Z,8.70
2018-09-18T12:32:08.844Z,9.10
2018-09-18T12:34:38.422Z,8.57
2018-09-18T12:37:07.950Z,8.77
2018-09-18T12:39:37.095Z,8.50
2018-09-18T12:42:07.264Z,9.43
2018-09-18T12:44:36.297Z,9.20
2018-09-18T12:47:05.538Z,9.23
2018-09-18T12:49:34.930Z,9.70
2018-09-18T12:52:03.956Z,9.43
2018-09-18T12:54:33.143Z,9.07
2018-09-18T12:57:02.481Z,9.80
2018-09-18T12:59:31.566Z,8.50
2018-09-18T13:02:00.717Z,9.17
2018-09-18T13:04:29.283Z,8.83
2018-09-18T13:06:57.932Z,8.47
2018-09-18T13:09:26.563Z,8.33
2018-09-18T13:11:55.289Z,9.10
2018-09-18T13:14:23.884Z,8.20
2018-09-18T13:16:53.160Z,9.20
2018-09-18T13:19:22.409Z,8.40
2018-09-18T13:21:51.547Z,7.70
2018-09-18T13:24:20.699Z,7.80
2018-09-18T13:26:50.010Z,8.37
2018-09-18T13:29:19.178Z,8.87
2018-09-18T13:31:48.373Z,8.97
2018-09-18T13:34:17.949Z,7.70
2018-09-18T13:36:47.081Z,8.17
2018-09-18T13:39:16.221Z,8.20
2018-09-18T13:41:45.456Z,7.90
2018-09-18T13:44:14.654Z,8.90
2018-09-18T13:46:43.773Z,7.40
2018-09-18T13:49:13.026Z,7.83
2018-09-18T13:51:42.307Z,8.67
2018-09-18T13:54:11.476Z,7.17
2018-09-18T13:56:40.792Z,8.00
2018-09-18T13:59:09.906Z,8.30
2018-09-18T14:01:39.296Z,8.40
2018-09-18T14:04:08.450Z,8.30
2018-09-18T14:06:37.618Z,8.20
2018-09-18T14:09:08.543Z,8.70
2018-09-18T14:11:38.108Z,8.47
2018-09-18T14:14:07.435Z,7.93
2018-09-18T14:16:36.630Z,7.43
2018-09-18T14:19:05.882Z,8.40
2018-09-18T14:21:35.079Z,7.30
2018-09-18T14:24:04.249Z,7.97
2018-09-18T14:26:33.531Z,7.57
2018-09-18T14:29:02.516Z,7.60
2018-09-18T14:31:32.427Z,7.67
2018-09-18T14:34:01.586Z,7.90
2018-09-18T14:36:30.715Z,8.67
2018-09-18T14:38:59.976Z,7.53
2018-09-18T14:41:29.169Z,7.90
2018-09-18T14:43:58.372Z,8.40
2018-09-18T14:46:27.573Z,7.57
2018-09-18T14:48:56.866Z,6.40
2018-09-18T14:51:26.042Z,7.80
2018-09-18T14:53:55.829Z,8.10
2018-09-18T14:56:25.086Z,7.73
2018-09-18T14:58:54.232Z,7.73
2018-09-18T15:01:23.440Z,8.90
2018-09-18T15:03:52.968Z,7.87
2018-09-18T15:06:22.091Z,7.70
2018-09-18T15:08:51.271Z,8.43
2018-09-18T15:11:20.487Z,8.03
2018-09-18T15:13:49.733Z,8.43
2018-09-18T15:16:18.901Z,6.93
2018-09-18T15:18:48.165Z,7.73
2018-09-18T15:21:17.440Z,8.30
2018-09-18T15:23:46.566Z,8.20
2018-09-18T15:26:15.730Z,7.60
2018-09-18T15:28:44.889Z,8.40
2018-09-18T15:31:14.223Z,7.27
2018-09-18T15:33:43.778Z,8.00
2018-09-18T15:36:12.860Z,7.73
2018-09-18T15:38:42.877Z,8.40
2018-09-18T15:41:12.405Z,7.37
2018-09-18T15:43:42.060Z,7.23
2018-09-18T15:46:11.428Z,7.40
2018-09-18T15:48:40.978Z,7.97
2018-09-18T15:51:10.668Z,8.27
2018-09-18T15:53:40.366Z,7.50
2018-09-18T15:56:09.958Z,8.50
2018-09-18T15:58:40.677Z,8.00
2018-09-18T16:01:10.757Z,8.10
2018-09-18T16:03:40.589Z,7.67
2018-09-18T16:06:09.758Z,7.90
2018-09-18T16:08:40.141Z,7.80
2018-09-18T16:11:09.523Z,7.83
2018-09-18T16:13:38.689Z,7.50
2018-09-18T16:16:08.362Z,7.97
2018-09-18T16:18:37.885Z,7.87
2018-09-18T16:21:07.117Z,8.70
2018-09-18T16:23:36.777Z,8.00
2018-09-18T16:26:06.052Z,8.40
2018-09-18T16:28:35.438Z,8.10
2018-09-18T16:31:04.920Z,8.90
2018-09-18T16:33:34.090Z,8.07
2018-09-18T16:36:03.278Z,7.90
2018-09-18T16:38:32.934Z,9.30
2018-09-18T16:41:02.289Z,8.73
2018-09-18T16:43:31.392Z,7.93
2018-09-18T16:46:00.979Z,8.60
2018-09-18T16:48:30.291Z,8.60
2018-09-18T16:50:59.430Z,8.80
2018-09-18T16:53:28.986Z,9.70
2018-09-18T16:55:58.101Z,9.03
2018-09-18T16:58:27.706Z,8.60
2018-09-18T17:00:57.131Z,8.70
2018-09-18T17:03:26.301Z,8.73
2018-09-18T17:05:55.510Z,9.20
2018-09-18T17:08:24.940Z,8.60
2018-09-18T17:10:54.089Z,8.40
2018-09-18T17:13:23.373Z,8.37
2018-09-18T17:15:52.925Z,9.40
2018-09-18T17:18:22.127Z,8.93
2018-09-18T17:20:51.595Z,8.60
2018-09-18T17:23:21.111Z,8.83
2018-09-18T17:25:50.241Z,9.77
2018-09-18T17:28:19.524Z,9.33
2018-09-18T17:30:48.658Z,8.53
2018-09-18T17:33:18.112Z,9.33
2018-09-18T17:35:47.565Z,10.53
2018-09-18T17:38:16.800Z,9.50
2018-09-18T17:40:45.934Z,9.40
2018-09-18T17:43:15.180Z,9.90
2018-09-18T17:45:44.417Z,10.17
2018-09-18T17:48:13.615Z,9.80
2018-09-18T17:50:43.070Z,10.10
2018-09-18T17:53:12.340Z,10.37
2018-09-18T17:55:41.926Z,9.83
2018-09-18T17:58:11.195Z,9.63
2018-09-18T18:00:40.421Z,10.07
2018-09-18T18:03:09.721Z,9.70
2018-09-18T18:05:39.019Z,9.50
2018-09-18T18:08:08.428Z,9.97
2018-09-18T18:10:37.664Z,9.40
2018-09-18T18:13:07.837Z,9.93
2018-09-18T18:15:37.598Z,9.30
2018-09-18T18:18:06.798Z,9.93
2018-09-18T18:20:36.062Z,9.70
2018-09-18T18:23:05.870Z,10.90
2018-09-18T18:25:35.106Z,10.27
2018-09-18T18:28:04.377Z,11.13
2018-09-18T18:30:33.682Z,10.17
2018-09-18T18:33:02.942Z,10.60
2018-09-18T18:35:32.174Z,10.70
2018-09-18T18:38:01.665Z,11.70
2018-09-18T18:40:30.839Z,10.47
2018-09-18T18:43:00.017Z,10.20
2018-09-18T18:45:29.450Z,10.20
2018-09-18T18:47:58.836Z,10.03
2018-09-18T18:50:27.913Z,10.27
2018-09-18T18:52:57.362Z,10.80
2018-09-18T18:55:26.567Z,10.73
2018-09-18T18:57:55.699Z,10.43
2018-09-18T19:00:25.287Z,11.40
2018-09-18T19:02:54.524Z,11.93
2018-09-18T19:05:24.162Z,10.83
2018-09-18T19:07:53.365Z,10.93
2018-09-18T19:10:22.650Z,11.93
2018-09-18T19:12:51.836Z,11.50
2018-09-18T19:15:21.053Z,10.97
2018-09-18T19:17:50.263Z,12.13
2018-09-18T19:20:19.451Z,11.53
2018-09-18T19:22:49.093Z,12.67
2018-09-18T19:25:18.528Z,11.73
2018-09-18T19:27:47.730Z,11.20
2018-09-18T19:30:17.714Z,11.40
2018-09-18T19:32:46.908Z,11.90
2018-09-18T19:35:16.102Z,13.03
2018-09-18T19:37:45.456Z,11.33
2018-09-18T19:40:14.777Z,10.60
2018-09-18T19:42:43.930Z,10.47
2018-09-18T19:45:13.144Z,11.10
2018-09-18T19:47:42.294Z,12.23
2018-09-18T19:50:16.031Z,12.17
2018-09-18T19:52:46.648Z,12.57
2018-09-18T19:55:16.429Z,11.93
2018-09-18T19:57:46.291Z,13.73
2018-09-18T20:00:15.502Z,13.13
2018-09-18T20:02:44.654Z,14.40
2018-09-18T20:05:14.119Z,14.00
2018-09-18T20:07:43.237Z,13.43
2018-09-18T20:10:12.371Z,14.30
2018-09-18T20:12:41.626Z,14.40
2018-09-18T20:15:10.840Z,14.83
2018-09-18T20:17:40.000Z,14.40
2018-09-18T20:20:09.548Z,14.63
2018-09-18T20:22:38.693Z,13.50
2018-09-18T20:25:08.038Z,14.47
2018-09-18T20:27:37.261Z,15.77
2018-09-18T20:30:06.704Z,16.13
2018-09-18T20:32:35.872Z,16.13
2018-09-18T20:35:05.046Z,15.97
2018-09-18T20:37:34.294Z,17.27
2018-09-18T20:40:04.329Z,16.17
2018-09-18T20:42:33.661Z,16.57
2018-09-18T20:45:02.819Z,19.33
2018-09-18T20:47:31.978Z,19.00
2018-09-18T20:50:01.213Z,19.30
2018-09-18T20:52:30.407Z,19.03
2018-09-18T20:54:59.911Z,19.13
2018-09-18T20:57:29.226Z,19.87
2018-09-18T20:59:58.380Z,22.17
2018-09-18T21:02:29.148Z,20.73
2018-09-18T21:04:58.348Z,20.60
2018-09-18T21:07:27.530Z,18.87
2018-09-18T21:09:56.674Z,19.03
2018-09-18T21:12:25.962Z,19.33
2018-09-18T21:14:55.088Z,18.17
2018-09-18T21:17:24.303Z,18.37
2018-09-18T21:19:53.562Z,20.10
2018-09-18T21:22:22.713Z,19.73
2018-09-18T21:25:00.513Z,18.30
2018-09-18T21:27:29.669Z,19.20
2018-09-18T21:29:58.825Z,19.77
2018-09-18T21:32:28.047Z,19.40
2018-09-18T21:34:57.174Z,18.50
2018-09-18T21:37:26.367Z,20.23
2018-09-18T21:39:55.622Z,21.60
2018-09-18T21:42:24.888Z,19.90
2018-09-18T21:44:54.043Z,22.23
2018-09-18T21:47:23.338Z,22.23
2018-09-18T21:49:53.255Z,23.63
2018-09-18T21:52:22.382Z,24.50
2018-09-18T21:54:51.545Z,23.30
2018-09-18T21:57:20.736Z,24.00
2018-09-18T21:59:50.070Z,23.60
2018-09-18T22:02:19.263Z,23.20
2018-09-18T22:04:48.423Z,23.10
2018-09-18T22:07:17.585Z,23.57
2018-09-18T22:09:46.788Z,23.57
2018-09-18T22:12:16.086Z,23.40
2018-09-18T22:14:45.221Z,23.23
2018-09-18T22:17:14.408Z,25.33
2018-09-18T22:19:43.600Z,25.57
2018-09-18T22:22:12.836Z,27.40
2018-09-18T22:24:42.418Z,24.23
2018-09-18T22:27:11.574Z,24.90
2018-09-18T22:29:40.735Z,23.67
2018-09-18T22:32:09.925Z,24.80
2018-09-18T22:34:39.078Z,25.60
2018-09-18T22:37:08.808Z,24.97
2018-09-18T22:39:41.201Z,23.47
2018-09-18T22:42:10.397Z,22.80
2018-09-18T22:44:39.636Z,22.23
2018-09-18T22:47:09.106Z,23.27
2018-09-18T22:49:38.473Z,21.60
2018-09-18T22:52:07.725Z,22.03
2018-09-18T22:54:37.131Z,22.20
2018-09-18T22:57:06.681Z,21.33
2018-09-18T22:59:36.229Z,20.80
2018-09-18T23:02:05.561Z,21.07
2018-09-18T23:04:34.757Z,20.40
2018-09-18T23:07:03.942Z,21.47
2018-09-18T23:09:33.458Z,19.20
2018-09-18T23:12:02.739Z,20.67
2018-09-18T23:14:31.882Z,18.53
2018-09-18T23:17:01.139Z,18.40
2018-09-18T23:19:31.138Z,18.00
2018-09-18T23:22:00.292Z,16.20
2018-09-18T23:24:29.509Z,16.00
2018-09-18T23:26:58.853Z,14.70
2018-09-18T23:29:28.028Z,13.80
2018-09-18T23:31:57.240Z,13.50
2018-09-18T23:34:26.441Z,12.73
2018-09-18T23:36:55.754Z,12.20
2018-09-18T23:39:24.889Z,11.80
2018-09-18T23:41:54.071Z,11.47
2018-09-18T23:44:23.208Z,11.40
2018-09-18T23:46:52.377Z,12.47
2018-09-18T23:49:21.946Z,11.53
2018-09-18T23:51:51.265Z,11.87
2018-09-18T23:54:20.517Z,9.70
2018-09-18T23:56:49.754Z,8.90
2018-09-18T23:59:18.926Z,9.43
